Time;durP1;ratioP1;P1;durP2;ratioP2;P2;SDS_P1;SDS_P2;PMS_P1;PMS_P2;Temp;Humidity;BMP_temperature;BMP_pressure;BME280_temperature;BME280_humidity;BME280_pressure;Samples;Min_cycle;Max_cycle;Signal;HPM_P1;HPM_P2
2022/10/07 00:01:43;;;;;;;9.50;6.55;;;10.60;99.90;;;;;;4998142;28;20026;-76
2022/10/07 00:04:09;;;;;;;10.10;6.18;;;10.50;99.90;;;;;;4998151;28;20037;-76
2022/10/07 00:06:35;;;;;;;13.15;6.93;;;10.50;99.90;;;;;;5015640;28;20351;-76
2022/10/07 00:09:01;;;;;;;10.35;6.53;;;10.50;99.90;;;;;;5015585;28;20486;-75
2022/10/07 00:11:28;;;;;;;11.02;6.75;;;10.50;99.90;;;;;;4997951;28;20053;-76
2022/10/07 00:14:02;;;;;;;9.00;6.43;;;10.50;99.90;;;;;;5015513;28;20095;-76
2022/10/07 00:16:33;;;;;;;16.67;6.75;;;10.40;99.90;;;;;;5015102;28;20113;-76
2022/10/07 00:19:02;;;;;;;16.08;7.50;;;10.40;99.90;;;;;;4997864;28;20030;-76
2022/10/07 00:21:31;;;;;;;13.25;6.15;;;10.40;99.90;;;;;;5015931;28;20030;-76
2022/10/07 00:23:57;;;;;;;14.13;6.40;;;10.40;99.90;;;;;;4998142;28;20382;-76
2022/10/07 00:26:26;;;;;;;8.80;6.32;;;10.40;99.90;;;;;;4998155;28;20026;-76
2022/10/07 00:28:51;;;;;;;18.63;6.82;;;10.30;99.90;;;;;;5015220;28;20030;-76
2022/10/07 00:31:22;;;;;;;15.27;6.45;;;10.30;99.90;;;;;;4997803;28;20462;-76
2022/10/07 00:33:49;;;;;;;10.75;6.63;;;10.30;99.90;;;;;;5015535;28;20030;-76
2022/10/07 00:36:24;;;;;;;11.77;6.32;;;10.30;99.90;;;;;;4997738;28;20116;-76
2022/10/07 00:38:51;;;;;;;13.73;7.15;;;10.30;99.90;;;;;;5015090;28;20046;-76
2022/10/07 00:41:26;;;;;;;16.80;7.45;;;10.20;99.90;;;;;;4997622;28;20470;-76
2022/10/07 00:43:52;;;;;;;10.82;5.82;;;10.20;99.90;;;;;;5015234;28;20080;-75
2022/10/07 00:46:38;;;;;;;11.98;6.55;;;10.20;99.90;;;;;;4997296;28;20026;-76
2022/10/07 00:49:11;;;;;;;9.80;6.45;;;10.20;99.90;;;;;;5015073;28;20482;-76
2022/10/07 00:51:39;;;;;;;10.57;6.32;;;10.10;99.90;;;;;;5015205;28;20351;-76
2022/10/07 00:54:09;;;;;;;11.35;6.07;;;10.10;99.90;;;;;;5014784;28;20032;-76
2022/10/07 00:56:35;;;;;;;13.15;5.63;;;10.10;99.90;;;;;;5015271;28;20037;-76
2022/10/07 00:59:01;;;;;;;10.60;5.55;;;10.00;99.90;;;;;;4997188;28;20026;-76
2022/10/07 01:01:27;;;;;;;15.35;6.82;;;10.00;99.90;;;;;;5015069;28;20054;-75
2022/10/07 01:03:53;;;;;;;9.75;6.57;;;10.00;99.90;;;;;;4997115;28;20061;-76
2022/10/07 01:06:19;;;;;;;11.32;6.45;;;10.00;99.90;;;;;;4997079;28;20029;-76
2022/10/07 01:08:47;;;;;;;12.77;6.20;;;9.90;99.90;;;;;;4997341;28;20030;-76
2022/10/07 01:11:31;;;;;;;10.13;6.15;;;9.90;99.90;;;;;;4996955;28;20057;-76
2022/10/07 01:14:08;;;;;;;10.25;5.93;;;9.90;99.90;;;;;;5014339;28;20093;-76
2022/10/07 01:17:21;;;;;;;13.35;6.88;;;9.90;99.90;;;;;;5014286;28;20057;-75
2022/10/07 01:20:13;;;;;;;14.00;6.05;;;9.90;99.90;;;;;;4900419;29;20123;-76
2022/10/07 01:23:14;;;;;;;10.55;5.75;;;9.80;99.90;;;;;;4916027;29;20551;-76
2022/10/07 01:26:05;;;;;;;11.43;6.13;;;9.80;99.90;;;;;;5003324;28;20037;-76
2022/10/07 01:28:38;;;;;;;12.80;6.43;;;9.80;99.90;;;;;;5014433;28;20121;-76
2022/10/07 01:31:09;;;;;;;16.35;7.07;;;9.80;99.90;;;;;;5014400;28;20026;-75
2022/10/07 01:33:36;;;;;;;10.52;6.07;;;9.80;99.90;;;;;;5013942;28;20084;-76
2022/10/07 01:36:13;;;;;;;11.15;5.93;;;9.70;99.90;;;;;;5014170;28;20037;-76
2022/10/07 01:38:44;;;;;;;7.88;5.55;;;9.70;99.90;;;;;;5014208;28;20083;-76
2022/10/07 01:41:17;;;;;;;14.38;5.70;;;9.70;99.90;;;;;;5013954;28;20485;-76
2022/10/07 01:43:45;;;;;;;10.38;6.55;;;9.70;99.90;;;;;;5013774;28;20034;-76
2022/10/07 01:46:18;;;;;;;10.95;5.38;;;9.70;99.90;;;;;;4996106;28;20069;-76
2022/10/07 01:48:47;;;;;;;10.38;5.63;;;9.60;99.90;;;;;;5014427;28;20022;-76
2022/10/07 01:51:15;;;;;;;12.57;6.55;;;9.60;99.90;;;;;;5013747;28;20396;-76
2022/10/07 01:54:13;;;;;;;15.40;5.60;;;9.60;99.90;;;;;;4996478;28;20022;-76
2022/10/07 01:56:55;;;;;;;13.82;6.50;;;9.50;99.90;;;;;;5013949;28;20447;-76
2022/10/07 01:59:54;;;;;;;10.73;5.70;;;9.50;99.90;;;;;;4996739;28;20085;-76
2022/10/07 02:02:38;;;;;;;11.48;5.50;;;9.50;99.90;;;;;;5013915;28;20100;-76
2022/10/07 02:05:17;;;;;;;10.95;5.78;;;9.50;99.90;;;;;;4997024;28;20022;-76
2022/10/07 02:07:51;;;;;;;16.50;5.45;;;9.50;99.90;;;;;;5000364;28;20030;-75
2022/10/07 02:10:30;;;;;;;9.05;5.10;;;9.40;99.90;;;;;;5017924;28;20112;-76
2022/10/07 02:13:27;;;;;;;8.17;5.63;;;9.40;99.90;;;;;;4999927;28;20033;-76
2022/10/07 02:16:13;;;;;;;7.85;5.47;;;9.40;99.90;;;;;;5010631;28;20034;-76
2022/10/07 02:18:40;;;;;;;14.65;6.22;;;9.40;99.90;;;;;;5017788;28;20041;-76
2022/10/07 02:21:08;;;;;;;14.60;5.72;;;9.30;99.90;;;;;;5017636;28;20466;-76
2022/10/07 02:23:38;;;;;;;12.65;5.82;;;9.30;99.90;;;;;;5017893;28;20065;-76
2022/10/07 02:26:06;;;;;;;10.43;5.32;;;9.30;99.90;;;;;;5001159;28;20029;-75
2022/10/07 02:28:36;;;;;;;10.48;5.47;;;9.30;99.90;;;;;;5017308;28;20149;-76
2022/10/07 02:31:03;;;;;;;12.52;5.72;;;9.30;99.90;;;;;;5001030;28;20025;-76
2022/10/07 02:33:30;;;;;;;12.93;6.25;;;9.30;99.90;;;;;;5000976;28;20034;-76
2022/10/07 02:36:01;;;;;;;12.63;6.82;;;9.30;99.90;;;;;;5018331;28;20072;-76
2022/10/07 02:38:27;;;;;;;8.77;5.85;;;9.20;99.90;;;;;;5017992;28;20033;-76
2022/10/07 02:41:30;;;;;;;11.50;5.95;;;9.20;99.90;;;;;;5000122;28;20033;-76
2022/10/07 02:44:34;;;;;;;9.73;5.70;;;9.20;99.90;;;;;;5017692;28;20104;-76
2022/10/07 02:47:08;;;;;;;8.65;5.55;;;9.20;99.90;;;;;;4980318;28;20042;-76
2022/10/07 02:49:37;;;;;;;13.02;6.07;;;9.10;99.90;;;;;;4999971;28;20100;-76
2022/10/07 02:52:23;;;;;;;12.05;6.13;;;9.10;99.90;;;;;;4999868;28;20425;-75
2022/10/07 02:55:09;;;;;;;8.95;5.68;;;9.20;99.90;;;;;;4999984;28;20026;-76
2022/10/07 02:58:00;;;;;;;10.23;5.40;;;9.20;99.90;;;;;;4999769;28;20030;-76
2022/10/07 03:00:29;;;;;;;8.35;5.88;;;9.10;99.90;;;;;;4999394;28;20492;-75
2022/10/07 03:02:57;;;;;;;12.98;6.18;;;9.10;99.90;;;;;;4999292;28;20030;-76
2022/10/07 03:05:24;;;;;;;11.02;5.30;;;9.10;99.90;;;;;;4998953;28;20033;-75
2022/10/07 03:07:55;;;;;;;8.52;5.15;;;9.10;99.90;;;;;;4999738;28;20045;-76
2022/10/07 03:10:22;;;;;;;8.68;5.15;;;9.10;99.90;;;;;;5017360;28;20045;-76
2022/10/07 03:12:49;;;;;;;7.32;5.07;;;9.10;99.90;;;;;;5016831;28;20030;-76
2022/10/07 03:15:14;;;;;;;11.00;5.20;;;9.10;99.90;;;;;;5016883;28;20058;-75
2022/10/07 03:17:40;;;;;;;8.00;5.28;;;9.10;99.90;;;;;;5016156;28;20086;-75
2022/10/07 03:20:07;;;;;;;5.38;4.43;;;9.10;99.90;;;;;;4999157;28;20030;-76
2022/10/07 03:22:33;;;;;;;11.25;5.30;;;9.10;99.90;;;;;;5016574;28;20101;-76
2022/10/07 03:24:59;;;;;;;12.57;5.90;;;9.00;99.90;;;;;;4998941;28;20057;-76
2022/10/07 03:27:25;;;;;;;14.60;5.18;;;9.10;99.90;;;;;;4998995;28;20036;-76
2022/10/07 03:29:51;;;;;;;8.63;5.38;;;9.10;99.90;;;;;;5016533;28;20142;-76
2022/10/07 03:32:16;;;;;;;9.00;5.25;;;9.00;99.90;;;;;;4998833;28;20458;-76
2022/10/07 03:34:42;;;;;;;14.05;6.13;;;9.00;99.90;;;;;;4998987;28;20037;-76
2022/10/07 03:37:08;;;;;;;7.93;4.97;;;9.00;99.90;;;;;;5016257;28;20034;-75
2022/10/07 03:39:33;;;;;;;8.05;5.90;;;9.00;99.90;;;;;;4998804;28;20049;-76
2022/10/07 03:41:59;;;;;;;11.50;5.00;;;9.00;99.90;;;;;;5016529;28;20022;-76
2022/10/07 03:44:25;;;;;;;8.60;4.97;;;9.00;99.90;;;;;;4998730;28;20088;-76
2022/10/07 03:46:51;;;;;;;15.40;5.03;;;8.90;99.90;;;;;;4998893;28;20022;-76
2022/10/07 03:49:18;;;;;;;8.15;4.80;;;8.90;99.90;;;;;;4998485;28;20375;-76
2022/10/07 03:51:44;;;;;;;6.95;4.43;;;8.90;99.90;;;;;;5015992;28;20017;-76
2022/10/07 03:54:09;;;;;;;8.40;4.70;;;8.90;99.90;;;;;;5015995;28;20045;-76
2022/10/07 03:56:35;;;;;;;11.43;4.75;;;8.90;99.90;;;;;;4998272;28;20061;-76
2022/10/07 03:59:01;;;;;;;13.52;5.22;;;8.90;99.90;;;;;;5016212;28;20054;-76
2022/10/07 04:01:30;;;;;;;8.45;4.65;;;8.90;99.90;;;;;;5015799;28;20022;-76
2022/10/07 04:03:57;;;;;;;6.68;4.50;;;8.90;99.90;;;;;;5015876;28;20075;-76
2022/10/07 04:06:23;;;;;;;10.00;5.82;;;8.90;99.90;;;;;;4998263;28;20041;-75
2022/10/07 04:08:54;;;;;;;12.60;5.82;;;8.90;99.90;;;;;;5015556;28;20021;-76
2022/10/07 04:11:20;;;;;;;11.05;4.97;;;8.80;99.90;;;;;;5015874;28;20119;-75
2022/10/07 04:13:47;;;;;;;9.32;4.95;;;8.80;99.90;;;;;;4998480;28;20026;-76
2022/10/07 04:16:13;;;;;;;8.27;4.85;;;8.80;99.90;;;;;;4998012;28;20458;-77
2022/10/07 04:18:40;;;;;;;6.70;4.82;;;8.80;99.90;;;;;;4998372;28;20084;-76
2022/10/07 04:21:06;;;;;;;8.95;6.05;;;8.80;99.90;;;;;;4998049;28;20029;-78
2022/10/07 04:23:33;;;;;;;8.35;4.90;;;8.80;99.90;;;;;;5015855;28;20428;-76
2022/10/07 04:25:59;;;;;;;11.93;6.72;;;8.80;99.90;;;;;;5017932;28;20026;-80
2022/10/07 04:28:25;;;;;;;9.98;7.18;;;8.80;99.90;;;;;;4998161;28;20504;-77
2022/10/07 04:30:52;;;;;;;11.63;6.60;;;8.80;99.90;;;;;;4998664;28;20050;-77
2022/10/07 04:33:20;;;;;;;12.23;6.32;;;8.90;99.90;;;;;;4998098;28;20120;-77
2022/10/07 04:35:47;;;;;;;8.40;5.95;;;8.90;99.90;;;;;;5015627;28;20022;-76
2022/10/07 04:38:14;;;;;;;15.50;9.77;;;8.90;99.90;;;;;;4997986;28;20034;-78
2022/10/07 04:40:46;;;;;;;11.85;10.60;;;8.80;99.90;;;;;;4997792;28;20034;-78
2022/10/07 04:43:18;;;;;;;10.52;8.55;;;8.80;99.90;;;;;;5016885;28;20034;-77
2022/10/07 04:45:47;;;;;;;12.90;6.85;;;8.80;99.90;;;;;;5001492;28;20077;-78
2022/10/07 04:48:16;;;;;;;8.80;6.75;;;8.80;99.90;;;;;;5002676;28;20026;-80
2022/10/07 04:50:42;;;;;;;11.43;6.78;;;8.80;99.90;;;;;;5003085;28;20034;-76
2022/10/07 04:53:10;;;;;;;11.05;6.85;;;8.80;99.90;;;;;;5018718;28;20030;-75
2022/10/07 04:55:39;;;;;;;7.93;6.47;;;8.80;99.90;;;;;;5018210;28;20101;-75
2022/10/07 04:58:06;;;;;;;10.55;7.05;;;8.80;99.90;;;;;;4999996;28;20133;-76
2022/10/07 05:00:32;;;;;;;16.55;8.38;;;8.80;99.90;;;;;;5016460;28;20022;-76
2022/10/07 05:02:58;;;;;;;15.70;9.75;;;8.90;99.90;;;;;;4998657;28;20026;-76
2022/10/07 05:05:26;;;;;;;11.52;6.93;;;8.90;99.90;;;;;;5015847;28;20076;-76
2022/10/07 05:07:53;;;;;;;13.02;7.10;;;8.90;99.90;;;;;;4998577;28;20045;-75
2022/10/07 05:10:19;;;;;;;13.73;7.93;;;8.90;99.90;;;;;;5015601;28;20026;-76
2022/10/07 05:12:45;;;;;;;18.90;8.80;;;8.90;99.90;;;;;;5015374;28;20029;-75
2022/10/07 05:15:11;;;;;;;15.95;10.30;;;8.90;99.90;;;;;;4998425;28;20121;-75
2022/10/07 05:17:39;;;;;;;15.48;11.27;;;9.00;99.90;;;;;;5015497;28;20128;-75
2022/10/07 05:20:07;;;;;;;15.13;8.73;;;9.10;99.90;;;;;;4997657;28;20454;-75
2022/10/07 05:22:33;;;;;;;12.88;8.43;;;9.10;99.90;;;;;;5015241;28;20034;-75
2022/10/07 05:24:58;;;;;;;12.90;8.73;;;9.10;99.90;;;;;;4997677;28;20160;-76
2022/10/07 05:27:24;;;;;;;15.07;8.73;;;9.10;99.90;;;;;;4997506;28;20029;-75
2022/10/07 05:29:50;;;;;;;15.98;9.80;;;9.10;99.90;;;;;;5015155;28;20442;-75
2022/10/07 05:32:16;;;;;;;13.25;8.80;;;9.20;99.90;;;;;;4997693;28;20033;-76
2022/10/07 05:34:43;;;;;;;14.55;8.98;;;9.20;99.90;;;;;;4997427;28;20032;-75
2022/10/07 05:37:10;;;;;;;15.13;11.18;;;9.20;99.90;;;;;;4997164;28;20044;-75
2022/10/07 05:39:36;;;;;;;18.70;12.40;;;9.30;99.90;;;;;;5014779;28;20056;-75
2022/10/07 05:42:02;;;;;;;17.92;12.23;;;9.40;99.90;;;;;;4997538;28;20030;-75
2022/10/07 05:44:30;;;;;;;22.33;13.00;;;9.50;99.90;;;;;;5014760;28;20483;-75
2022/10/07 05:46:57;;;;;;;16.77;12.73;;;9.60;99.90;;;;;;5014624;28;20382;-75
2022/10/07 05:49:23;;;;;;;17.20;11.43;;;9.60;99.90;;;;;;4997209;28;20033;-75
2022/10/07 05:51:49;;;;;;;19.30;11.05;;;9.70;99.90;;;;;;5014487;28;20022;-74
2022/10/07 05:54:15;;;;;;;23.73;11.35;;;9.80;99.90;;;;;;4997205;28;20026;-75
2022/10/07 05:56:41;;;;;;;18.50;11.77;;;9.80;99.90;;;;;;5014325;28;20152;-75
2022/10/07 05:59:06;;;;;;;20.95;12.65;;;9.90;99.90;;;;;;5014529;28;20064;-75
2022/10/07 06:01:32;;;;;;;22.05;13.13;;;10.00;99.90;;;;;;4996813;28;20431;-75
2022/10/07 06:03:58;;;;;;;26.42;13.63;;;10.10;99.90;;;;;;5014040;28;20514;-75
2022/10/07 06:06:24;;;;;;;22.35;13.98;;;10.20;99.90;;;;;;5014030;28;20029;-75
2022/10/07 06:08:51;;;;;;;22.50;13.13;;;10.20;99.90;;;;;;4996746;28;20037;-75
2022/10/07 06:14:03;;;;;;;17.73;12.10;;;10.40;99.90;;;;;;5013751;28;20386;-75
2022/10/07 06:16:29;;;;;;;27.70;14.05;;;10.50;99.90;;;;;;4996185;28;20042;-75
2022/10/07 06:18:55;;;;;;;23.67;14.40;;;10.70;99.90;;;;;;4996724;28;20037;-75
2022/10/07 06:21:26;;;;;;;27.92;16.23;;;10.90;99.90;;;;;;5013716;28;20080;-75
2022/10/07 06:23:53;;;;;;;28.38;17.88;;;11.10;99.90;;;;;;5013509;28;20438;-75
2022/10/07 06:26:20;;;;;;;28.27;18.27;;;11.30;99.90;;;;;;5013582;28;20413;-75
2022/10/07 06:28:47;;;;;;;22.95;17.10;;;11.50;99.90;;;;;;4996174;28;20478;-75
2022/10/07 06:31:22;;;;;;;27.55;17.13;;;11.70;99.90;;;;;;5013930;28;20045;-75
2022/10/07 06:33:49;;;;;;;26.15;17.85;;;11.90;99.90;;;;;;5013795;28;20021;-75
2022/10/07 06:36:14;;;;;;;27.00;18.30;;;12.20;99.90;;;;;;4996634;28;20030;-75
2022/10/07 06:38:44;;;;;;;26.58;17.27;;;12.30;99.90;;;;;;4995857;28;20088;-75
2022/10/07 06:41:10;;;;;;;27.45;16.65;;;12.50;99.90;;;;;;5013244;28;20450;-75
2022/10/07 06:43:36;;;;;;;23.05;15.13;;;12.60;99.90;;;;;;4995946;28;20106;-75
2022/10/07 06:46:03;;;;;;;20.25;15.57;;;12.70;99.90;;;;;;5013624;28;20058;-75
2022/10/07 06:48:31;;;;;;;20.85;15.85;;;12.80;99.90;;;;;;4996015;28;20037;-75
2022/10/07 06:50:58;;;;;;;21.50;15.75;;;12.90;99.90;;;;;;4996306;28;20030;-75
2022/10/07 06:53:25;;;;;;;20.90;15.20;;;12.90;99.90;;;;;;5016716;28;20022;-76
2022/10/07 06:55:53;;;;;;;22.73;15.00;;;13.00;99.90;;;;;;5016803;28;20026;-76
2022/10/07 06:58:25;;;;;;;26.25;15.65;;;13.00;99.90;;;;;;5016717;28;20493;-75
2022/10/07 07:00:52;;;;;;;23.90;14.98;;;13.20;99.90;;;;;;5016913;28;20036;-76
2022/10/07 07:03:19;;;;;;;22.58;15.10;;;13.30;99.90;;;;;;5017014;28;20084;-76
2022/10/07 07:05:45;;;;;;;24.75;15.13;;;13.60;99.90;;;;;;5017471;28;20166;-76
2022/10/07 07:08:12;;;;;;;24.27;15.25;;;13.70;99.90;;;;;;4999520;28;20037;-76
2022/10/07 07:10:42;;;;;;;27.30;15.52;;;13.80;99.90;;;;;;5016788;28;20073;-76
2022/10/07 07:13:09;;;;;;;25.10;15.98;;;13.70;99.90;;;;;;4999140;28;20025;-76
2022/10/07 07:15:35;;;;;;;34.50;18.35;;;13.70;99.90;;;;;;5016702;28;20116;-76
2022/10/07 07:18:02;;;;;;;32.38;19.73;;;13.60;99.90;;;;;;5016522;28;20045;-76
2022/10/07 07:20:34;;;;;;;28.98;17.77;;;13.80;99.90;;;;;;5016766;28;20054;-76
2022/10/07 07:23:04;;;;;;;39.25;19.20;;;13.80;99.90;;;;;;4998702;28;20022;-76
2022/10/07 07:25:31;;;;;;;31.98;19.83;;;13.90;99.90;;;;;;4998780;28;20125;-76
2022/10/07 07:28:00;;;;;;;41.60;22.67;;;13.90;99.90;;;;;;5016518;28;20036;-76
2022/10/07 07:30:27;;;;;;;;;;;13.90;99.90;;;;;;4999644;28;20054;-76
2022/10/07 07:32:52;;;;;;;36.20;21.23;;;14.00;99.90;;;;;;4998913;28;19928;-76
2022/10/07 07:35:18;;;;;;;34.35;21.13;;;13.90;99.90;;;;;;4998670;28;20466;-76
2022/10/07 07:37:44;;;;;;;34.72;21.27;;;13.90;99.90;;;;;;5015928;28;20033;-75
2022/10/07 07:40:10;;;;;;;30.17;21.00;;;14.00;99.90;;;;;;4998515;28;20037;-75
2022/10/07 07:42:36;;;;;;;31.40;20.85;;;14.00;99.90;;;;;;5016592;28;20030;-76
2022/10/07 07:45:02;;;;;;;29.88;19.58;;;14.10;99.90;;;;;;4999061;28;20025;-76
2022/10/07 07:47:28;;;;;;;36.88;20.42;;;14.20;99.90;;;;;;5015622;28;20385;-76
2022/10/07 07:49:54;;;;;;;26.80;18.20;;;14.40;99.90;;;;;;4998387;28;20425;-77
2022/10/07 07:52:20;;;;;;;34.28;19.02;;;14.50;99.90;;;;;;5015914;28;20069;-76
2022/10/07 07:54:46;;;;;;;32.35;19.42;;;14.60;99.90;;;;;;5015909;28;20525;-76
2022/10/07 07:57:12;;;;;;;25.83;17.33;;;14.70;99.90;;;;;;4998328;28;20084;-76
2022/10/07 07:59:38;;;;;;;27.67;17.40;;;14.80;99.90;;;;;;4997917;28;20021;-76
2022/10/07 08:02:04;;;;;;;28.33;18.60;;;14.80;99.90;;;;;;5015609;28;20022;-77
2022/10/07 08:04:30;;;;;;;24.88;17.00;;;14.90;99.90;;;;;;4997443;28;20111;-76
2022/10/07 08:06:56;;;;;;;24.40;16.33;;;15.00;99.90;;;;;;5015377;28;20420;-76
2022/10/07 08:09:23;;;;;;;27.13;16.23;;;15.10;99.90;;;;;;5015669;28;20061;-76
2022/10/07 08:11:49;;;;;;;22.13;15.40;;;15.20;99.90;;;;;;5015541;28;20017;-76
2022/10/07 08:14:16;;;;;;;25.17;14.88;;;15.50;99.90;;;;;;5015872;28;20034;-77
2022/10/07 08:16:42;;;;;;;22.30;14.65;;;15.50;99.90;;;;;;4997583;28;20346;-76
2022/10/07 08:19:11;;;;;;;19.60;15.05;;;15.90;99.90;;;;;;5015437;28;20037;-76
2022/10/07 08:21:37;;;;;;;18.15;14.40;;;16.00;99.90;;;;;;4997556;28;20026;-76
2022/10/07 08:24:04;;;;;;;24.00;14.20;;;16.20;99.90;;;;;;5015058;28;20030;-76
2022/10/07 08:26:32;;;;;;;27.13;13.82;;;16.20;99.90;;;;;;4997633;28;20044;-76
2022/10/07 08:29:00;;;;;;;22.88;13.63;;;16.20;99.90;;;;;;4997539;28;20543;-77
2022/10/07 08:31:27;;;;;;;21.92;13.48;;;16.40;99.90;;;;;;4997687;28;20061;-77
2022/10/07 08:33:55;;;;;;;19.30;12.15;;;16.80;99.90;;;;;;5015128;28;20022;-77
2022/10/07 08:36:22;;;;;;;16.80;12.50;;;17.60;99.90;;;;;;5015040;28;20033;-77
2022/10/07 08:38:49;;;;;;;16.35;10.80;;;18.10;99.90;;;;;;5014800;28;20060;-77
2022/10/07 08:41:18;;;;;;;14.63;10.93;;;18.70;99.90;;;;;;5015005;28;20038;-77
2022/10/07 08:43:46;;;;;;;15.55;10.95;;;19.30;99.90;;;;;;4997316;28;20437;-77
2022/10/07 08:46:15;;;;;;;20.52;10.38;;;19.80;99.90;;;;;;4997491;28;20069;-78
2022/10/07 08:48:41;;;;;;;;;;;20.10;99.90;;;;;;5015518;28;20041;-77
2022/10/07 08:51:19;;;;;;;14.73;9.40;;;20.50;99.90;;;;;;4996996;28;19951;-78
2022/10/07 08:53:49;;;;;;;13.30;8.80;;;20.90;99.90;;;;;;5014953;28;20022;-78
2022/10/07 08:56:22;;;;;;;11.48;9.32;;;21.50;99.90;;;;;;4997209;28;20100;-78
2022/10/07 08:59:08;;;;;;;12.95;9.18;;;22.00;99.90;;;;;;4996982;28;20030;-78
2022/10/07 09:01:52;;;;;;;12.02;8.40;;;22.30;99.90;;;;;;4997140;28;20474;-78
2022/10/07 09:04:41;;;;;;;13.82;8.30;;;22.80;99.90;;;;;;4997049;28;20033;-78
2022/10/07 09:07:36;;;;;;;13.93;9.10;;;23.20;99.70;;;;;;5014740;28;20057;-78
2022/10/07 09:10:34;;;;;;;14.02;8.95;;;23.60;98.10;;;;;;4992342;28;20092;-78
2022/10/07 09:13:41;;;;;;;9.90;8.55;;;23.50;98.00;;;;;;5015363;28;20057;-78
2022/10/07 09:16:16;;;;;;;16.17;8.73;;;23.60;96.90;;;;;;4915749;29;20046;-78
2022/10/07 09:18:49;;;;;;;10.80;7.93;;;24.30;95.90;;;;;;4985082;28;20416;-78
2022/10/07 09:21:18;;;;;;;12.93;8.35;;;24.10;95.60;;;;;;4997150;28;20026;-79
2022/10/07 09:23:45;;;;;;;10.00;8.75;;;24.60;94.50;;;;;;4996900;28;20030;-79
2022/10/07 09:26:13;;;;;;;11.95;9.15;;;24.60;93.80;;;;;;5014596;28;20022;-79
2022/10/07 09:28:39;;;;;;;18.63;9.40;;;24.20;94.00;;;;;;4997076;28;20390;-78
2022/10/07 09:31:05;;;;;;;18.02;8.88;;;24.30;94.00;;;;;;4996770;28;20068;-79
2022/10/07 09:33:40;;;;;;;13.63;8.70;;;24.80;93.60;;;;;;4996680;28;20459;-78
2022/10/07 09:36:09;;;;;;;13.40;8.55;;;24.80;93.30;;;;;;5014118;28;20032;-79
2022/10/07 09:38:37;;;;;;;12.68;8.07;;;24.60;93.50;;;;;;5014175;28;20034;-79
2022/10/07 09:41:19;;;;;;;11.88;8.80;;;24.80;93.20;;;;;;4996494;28;20386;-79
2022/10/07 09:44:05;;;;;;;10.35;8.68;;;25.40;92.10;;;;;;4997010;28;20034;-79
2022/10/07 09:46:46;;;;;;;12.02;8.48;;;25.00;92.00;;;;;;4997450;28;20030;-79
2022/10/07 09:49:27;;;;;;;21.23;8.55;;;24.80;91.90;;;;;;5014376;28;20056;-79
2022/10/07 09:52:02;;;;;;;16.40;8.35;;;24.30;93.20;;;;;;5014148;28;20030;-79
2022/10/07 09:54:30;;;;;;;11.48;7.35;;;25.10;92.20;;;;;;4997120;28;20026;-79
2022/10/07 09:56:58;;;;;;;10.85;7.18;;;25.10;91.40;;;;;;5014191;28;20021;-78
2022/10/07 09:59:26;;;;;;;10.77;7.00;;;24.90;91.60;;;;;;4996962;28;20030;-79
2022/10/07 10:01:56;;;;;;;11.25;6.07;;;25.20;91.40;;;;;;4996900;28;20394;-79
2022/10/07 10:04:34;;;;;;;8.98;5.70;;;25.80;90.20;;;;;;5014180;28;20022;-79
2022/10/07 10:07:19;;;;;;;10.95;5.10;;;26.70;86.60;;;;;;5014218;28;20077;-80
2022/10/07 10:09:53;;;;;;;8.57;6.03;;;26.80;85.10;;;;;;4996896;28;20524;-80
2022/10/07 10:12:20;;;;;;;13.43;5.57;;;26.70;82.10;;;;;;4997016;28;20355;-79
2022/10/07 10:14:48;;;;;;;10.57;5.38;;;26.50;81.90;;;;;;5014470;28;20030;-79
2022/10/07 10:17:25;;;;;;;7.45;5.80;;;26.40;82.30;;;;;;5013811;28;20057;-78
2022/10/07 10:19:51;;;;;;;8.25;5.25;;;25.60;83.70;;;;;;4996406;28;20129;-79
2022/10/07 10:22:29;;;;;;;8.60;4.95;;;25.20;84.90;;;;;;4996284;28;20054;-79
2022/10/07 10:28:02;;;;;;;11.02;4.70;;;26.30;82.20;;;;;;5016950;28;20045;-78
2022/10/07 10:30:29;;;;;;;12.17;4.77;;;26.00;81.90;;;;;;5017678;28;20366;-78
2022/10/07 10:33:37;;;;;;;9.57;4.65;;;25.70;81.60;;;;;;5017668;28;20036;-78
2022/10/07 10:36:05;;;;;;;7.07;4.40;;;26.50;80.60;;;;;;5017610;28;20026;-78
2022/10/07 10:38:45;;;;;;;7.78;4.13;;;26.80;78.00;;;;;;5017427;28;20038;-78
2022/10/07 10:41:22;;;;;;;9.93;5.55;;;27.50;76.60;;;;;;5018014;28;20029;-78
2022/10/07 10:44:19;;;;;;;5.28;4.45;;;26.30;76.00;;;;;;5017238;28;20056;-79
2022/10/07 10:47:11;;;;;;;8.05;4.03;;;26.50;77.30;;;;;;4979539;28;20034;-78
2022/10/07 10:49:53;;;;;;;9.40;3.88;;;27.70;75.20;;;;;;5004990;28;20045;-79
2022/10/07 10:52:45;;;;;;;4.53;3.90;;;28.60;72.50;;;;;;4999773;28;20462;-79
2022/10/07 10:55:31;;;;;;;6.90;4.22;;;27.80;71.30;;;;;;5000095;28;20498;-78
2022/10/07 10:58:05;;;;;;;8.13;4.80;;;27.80;71.80;;;;;;5017672;28;20537;-78
2022/10/07 11:00:52;;;;;;;9.00;5.03;;;28.20;69.40;;;;;;4999739;28;20033;-78
2022/10/07 11:03:43;;;;;;;7.82;3.53;;;27.20;71.10;;;;;;4999613;28;20113;-79
2022/10/07 11:06:12;;;;;;;11.18;4.35;;;27.80;70.60;;;;;;4998967;28;20051;-78
2022/10/07 11:08:38;;;;;;;11.32;4.68;;;27.90;69.40;;;;;;5016710;28;20033;-78
2022/10/07 11:11:19;;;;;;;6.38;4.00;;;28.30;67.80;;;;;;5016408;28;20030;-79
2022/10/07 11:13:53;;;;;;;13.60;4.95;;;28.30;68.30;;;;;;4999528;28;20118;-79
2022/10/07 11:16:35;;;;;;;5.78;3.95;;;28.70;67.40;;;;;;4998907;28;20053;-78
2022/10/07 11:19:33;;;;;;;9.05;3.97;;;29.00;65.30;;;;;;4999735;28;20033;-79
2022/10/07 11:22:00;;;;;;;10.32;4.18;;;29.50;64.10;;;;;;4999093;28;20058;-79
2022/10/07 11:24:40;;;;;;;11.05;4.78;;;29.60;62.70;;;;;;5017021;28;20033;-79
2022/10/07 11:27:25;;;;;;;6.63;4.05;;;29.60;62.80;;;;;;5016470;28;20451;-78
2022/10/07 11:30:00;;;;;;;4.35;3.90;;;29.50;62.20;;;;;;4999188;28;20025;-78
2022/10/07 11:33:10;;;;;;;6.18;5.25;;;29.60;61.50;;;;;;5016444;28;20085;-78
2022/10/07 11:35:49;;;;;;;10.23;3.63;;;28.70;62.70;;;;;;4901863;29;20400;-78
2022/10/07 11:38:28;;;;;;;9.73;4.15;;;29.40;62.60;;;;;;4917279;29;20489;-79
2022/10/07 11:41:07;;;;;;;9.93;4.03;;;29.40;62.30;;;;;;4901611;29;20042;-78
2022/10/07 11:43:47;;;;;;;7.53;3.95;;;28.70;62.50;;;;;;4901503;29;20068;-78
2022/10/07 11:46:27;;;;;;;4.97;3.70;;;28.60;62.80;;;;;;4917447;29;20036;-78
2022/10/07 11:49:02;;;;;;;11.98;3.78;;;28.50;63.70;;;;;;4917300;29;20060;-78
2022/10/07 11:51:34;;;;;;;8.65;4.18;;;29.10;62.40;;;;;;4917313;29;20056;-79
2022/10/07 11:54:05;;;;;;;4.45;4.05;;;29.90;61.80;;;;;;4901561;29;20453;-78
2022/10/07 11:56:49;;;;;;;6.97;4.60;;;30.40;58.90;;;;;;4917230;29;20054;-78
2022/10/07 11:59:32;;;;;;;7.03;4.70;;;29.30;59.90;;;;;;4901698;29;20055;-78
2022/10/07 12:01:59;;;;;;;8.73;4.97;;;27.70;62.60;;;;;;4917291;29;20028;-78
2022/10/07 12:04:36;;;;;;;7.07;4.55;;;27.10;64.40;;;;;;4901371;29;20035;-78
2022/10/07 12:07:33;;;;;;;6.93;5.25;;;26.90;65.40;;;;;;4998443;28;20126;-78
2022/10/07 12:10:00;;;;;;;10.10;4.22;;;26.60;67.20;;;;;;4998229;28;20355;-78
2022/10/07 12:12:51;;;;;;;6.10;4.57;;;26.80;65.70;;;;;;4998136;28;20124;-78
2022/10/07 12:15:38;;;;;;;10.23;4.55;;;27.10;66.20;;;;;;4998285;28;20029;-78
2022/10/07 12:18:03;;;;;;;14.32;6.05;;;27.30;65.80;;;;;;5015888;28;20083;-78
2022/10/07 12:20:54;;;;;;;8.40;4.63;;;26.50;65.40;;;;;;4997705;28;20029;-78
2022/10/07 12:23:24;;;;;;;6.75;4.45;;;26.70;67.50;;;;;;4998208;28;20026;-77
2022/10/07 12:25:52;;;;;;;9.40;5.15;;;27.20;66.00;;;;;;4997985;28;20022;-78
2022/10/07 12:28:45;;;;;;;5.93;4.70;;;25.80;67.70;;;;;;5015424;28;20076;-78
2022/10/07 12:31:14;;;;;;;11.85;4.95;;;25.20;70.10;;;;;;4997456;28;20034;-78
2022/10/07 12:33:56;;;;;;;9.77;4.97;;;25.20;71.00;;;;;;4997907;28;20037;-78
2022/10/07 12:36:25;;;;;;;8.75;5.20;;;24.80;71.90;;;;;;5015140;28;20053;-78
2022/10/07 12:41:30;;;;;;;5.25;4.22;;;24.90;73.70;;;;;;5015113;28;20038;-78
2022/10/07 12:44:06;;;;;;;5.85;3.90;;;26.00;70.70;;;;;;4997227;28;20123;-78
2022/10/07 12:46:50;;;;;;;6.05;4.40;;;26.30;70.90;;;;;;5015162;28;20034;-78
2022/10/07 12:49:47;;;;;;;7.13;4.32;;;25.70;70.40;;;;;;4996993;28;20057;-75
2022/10/07 12:52:50;;;;;;;8.10;3.90;;;26.10;69.30;;;;;;4997866;28;20068;-77
2022/10/07 12:55:35;;;;;;;6.70;3.70;;;26.40;69.30;;;;;;4967897;28;20034;-77
2022/10/07 13:01:36;;;;;;;4.07;3.30;;;25.70;70.40;;;;;;5014801;28;20122;-77
2022/10/07 13:04:13;;;;;;;6.13;2.80;;;26.20;69.90;;;;;;5014366;28;20034;-78
2022/10/07 13:06:57;;;;;;;4.40;3.13;;;27.00;68.50;;;;;;4977587;28;20023;-78
2022/10/07 13:09:53;;;;;;;7.93;3.70;;;27.00;66.00;;;;;;4988215;28;20022;-78
2022/10/07 13:12:52;;;;;;;6.63;3.38;;;25.90;68.00;;;;;;4944634;28;20039;-78
2022/10/07 13:15:55;;;;;;;7.72;3.25;;;26.10;68.80;;;;;;5014090;28;20046;-78
2022/10/07 13:18:27;;;;;;;5.47;2.90;;;26.80;67.80;;;;;;4931969;28;20395;-78
2022/10/07 13:21:09;;;;;;;5.20;3.22;;;26.70;66.40;;;;;;5009747;28;20030;-78